Time;durP1;ratioP1;P1;durP2;ratioP2;P2;SDS_P1;SDS_P2;PMS_P1;PMS_P2;Temp;Humidity;BMP_temperature;BMP_pressure;BME280_temperature;BME280_humidity;BME280_pressure;Samples;Min_cycle;Max_cycle;Signal;HPM_P1;HPM_P2
2023/01/15 00:01:58;;;;;;;;;;;;;;;-144.99;87.05;52594.84;5063612;28;20115;-66
2023/01/15 00:04:25;;;;;;;;;;;;;;;-144.99;86.84;52586.69;5065224;28;19981;-65
2023/01/15 00:06:53;;;;;;;;;;;;;;;-144.99;87.95;52590.78;5062004;28;20301;-67
2023/01/15 00:09:20;;;;;;;;;;;;;;;-144.99;88.16;52568.34;5068382;28;19972;-69
2023/01/15 00:11:46;;;;;;;;;;;;;;;-144.99;88.86;52582.63;5059879;28;19936;-68
2023/01/15 00:14:13;;;;;;;;;;;;;;;-144.99;89.16;52590.78;5059654;28;19933;-68
2023/01/15 00:16:40;;;;;;;;;;;;;;;-144.99;89.00;52580.59;5052995;28;19932;-68
2023/01/15 00:19:11;;;;;;;;;;;;;;;-144.99;89.25;52619.31;5059391;28;19928;-69
2023/01/15 00:21:37;;;;;;;;;;;;;;;-144.99;89.57;52537.78;5063116;28;20400;-66
2023/01/15 00:29:52;;;;;;;;;;;;;;;-144.99;90.06;52596.88;5054411;28;19939;-72
2023/01/15 00:32:19;;;;;;;;;;;;;;;-144.99;90.62;52586.69;5068232;28;19929;-73
2023/01/15 00:34:47;;;;;;;;;;;;;;;-144.99;90.09;52578.53;5063877;28;19932;-70
2023/01/15 00:37:13;;;;;;;;;;;;;;;-144.99;89.44;52603.00;5063970;28;20017;-71
2023/01/15 00:39:40;;;;;;;;;;;;;;;-144.99;89.00;52598.94;5066889;28;19984;-71
2023/01/15 00:42:06;;;;;;;;;;;;;;;-144.99;90.00;52586.69;5068338;28;19924;-71
2023/01/15 00:44:33;;;;;;;;;;;;;;;-144.99;89.32;52578.53;5065144;28;19947;-70
2023/01/15 00:47:00;;;;;;;;;;;;;;;-144.99;90.04;52613.19;5062550;28;19960;-70
2023/01/15 00:49:26;;;;;;;;;;;;;;;-144.99;89.57;52590.78;5068249;28;20159;-71
2023/01/15 00:51:54;;;;;;;;;;;;;;;-144.99;89.77;52594.84;5064062;28;19936;-69
2023/01/15 00:54:21;;;;;;;;;;;;;;;-144.99;89.34;52574.47;5061666;28;19929;-70
2023/01/15 00:56:47;;;;;;;;;;;;;;;-144.99;89.71;52578.53;5062619;28;19933;-69
2023/01/15 00:59:14;;;;;;;;;;;;;;;-144.99;89.95;52582.63;5058172;28;19929;-70
2023/01/15 01:01:40;;;;;;;;;;;;;;;-144.99;90.38;52603.00;5078485;28;20266;-68
2023/01/15 01:04:07;;;;;;;;;;;;;;;-144.99;90.88;52566.31;5074516;28;20251;-73
2023/01/15 01:06:34;;;;;;;;;;;;;;;-144.99;90.85;52562.25;5070233;28;19935;-73
2023/01/15 01:09:02;;;;;;;;;;;;;;;-144.99;89.98;52619.31;5053734;28;19973;-75
2023/01/15 01:11:32;;;;;;;;;;;;;;;-144.99;90.83;52568.34;5049148;28;19933;-68
2023/01/15 01:14:00;;;;;;;;;;;;;;;-144.99;91.79;52582.63;5056180;28;19935;-71
2023/01/15 01:16:29;;;;;;;;;;;;;;;-144.99;91.41;52574.47;5060836;28;20166;-70
2023/01/15 01:18:56;;;;;;;;;;;;;;;-144.99;91.65;52550.00;5068086;28;20284;-71
2023/01/15 01:21:22;;;;;;;;;;;;;;;-144.99;91.62;52566.31;5054543;28;19982;-71
2023/01/15 01:23:49;;;;;;;;;;;;;;;-144.99;92.12;52554.09;5066058;28;19928;-71
2023/01/15 01:26:17;;;;;;;;;;;;;;;-144.99;92.28;52586.69;5060480;28;20036;-70
2023/01/15 01:28:43;;;;;;;;;;;;;;;-144.99;92.56;52603.00;5054129;28;20025;-70
2023/01/15 01:31:10;;;;;;;;;;;;;;;-144.99;92.29;52574.47;5067751;28;19970;-71
2023/01/15 01:33:37;;;;;;;;;;;;;;;-144.99;91.89;52572.44;5066993;28;19928;-69
2023/01/15 01:36:03;;;;;;;;;;;;;;;-144.99;93.34;52598.94;5068423;28;19933;-70
2023/01/15 01:38:30;;;;;;;;;;;;;;;-144.99;93.67;52566.31;5056322;28;19924;-70
2023/01/15 01:40:56;;;;;;;;;;;;;;;-144.99;93.81;52568.34;5075785;28;19932;-70
2023/01/15 01:43:25;;;;;;;;;;;;;;;-144.99;93.14;52568.34;5080465;28;19978;-70
2023/01/15 01:45:52;;;;;;;;;;;;;;;-144.99;93.19;52570.38;5061916;28;19968;-69
2023/01/15 01:48:21;;;;;;;;;;;;;;;-144.99;93.57;52603.00;5067873;28;19985;-70
2023/01/15 01:50:49;;;;;;;;;;;;;;;-144.99;93.80;52603.00;5065479;28;19936;-70
2023/01/15 01:53:18;;;;;;;;;;;;;;;-144.99;94.81;52623.38;5060161;28;19932;-72
2023/01/15 01:55:45;;;;;;;;;;;;;;;-144.99;93.87;52550.00;5062900;28;20061;-70
2023/01/15 01:58:12;;;;;;;;;;;;;;;-144.99;93.80;52603.00;5058373;28;20487;-70
2023/01/15 02:00:42;;;;;;;;;;;;;;;-144.99;94.57;52615.25;5064196;28;19933;-69
2023/01/15 02:03:09;;;;;;;;;;;;;;;-144.99;92.48;52582.63;5061697;28;19936;-70
2023/01/15 02:05:38;;;;;;;;;;;;;;;-144.99;92.91;52574.47;5060566;28;20005;-71
2023/01/15 02:08:05;;;;;;;;;;;;;;;-144.99;93.33;52615.25;5063009;28;20158;-70
2023/01/15 02:10:31;;;;;;;;;;;;;;;-144.99;93.13;52603.00;5050535;28;19925;-70
2023/01/15 02:13:00;;;;;;;;;;;;;;;-144.99;93.19;52615.25;5053112;28;19929;-70
2023/01/15 02:15:30;;;;;;;;;;;;;;;-144.99;93.22;52615.25;5050453;28;19937;-70
2023/01/15 02:18:01;;;;;;;;;;;;;;;-144.99;92.37;52590.78;5059168;28;20029;-70
2023/01/15 02:20:31;;;;;;;;;;;;;;;-144.99;92.86;52582.63;5047678;28;19924;-72
2023/01/15 02:23:04;;;;;;;;;;;;;;;-144.99;92.19;52564.28;5077622;28;20042;-70
2023/01/15 02:25:33;;;;;;;;;;;;;;;-144.99;92.50;52605.03;5066261;28;20336;-70
2023/01/15 02:28:04;;;;;;;;;;;;;;;-144.99;92.96;52588.75;5057319;28;20385;-70
2023/01/15 02:30:33;;;;;;;;;;;;;;;-144.99;92.47;52598.94;5046798;28;20018;-70
2023/01/15 02:33:04;;;;;;;;;;;;;;;-144.99;92.02;52594.84;5051919;28;19925;-70
2023/01/15 02:35:36;;;;;;;;;;;;;;;-144.99;91.47;52570.38;5053129;28;19938;-67
2023/01/15 02:38:05;;;;;;;;;;;;;;;-144.99;91.21;52598.94;5052887;28;19924;-67
2023/01/15 02:40:32;;;;;;;;;;;;;;;-144.99;90.92;52586.69;5052202;28;19928;-67
2023/01/15 02:42:59;;;;;;;;;;;;;;;-144.99;91.05;52627.47;5066093;28;19931;-66
2023/01/15 02:45:29;;;;;;;;;;;;;;;-144.99;89.88;52562.25;5062297;28;20415;-65
2023/01/15 02:47:57;;;;;;;;;;;;;;;-144.99;89.71;52598.94;5062728;28;19932;-66
2023/01/15 02:50:26;;;;;;;;;;;;;;;-144.99;89.62;52566.31;4713735;28;10000219;-66
2023/01/15 02:52:55;;;;;;;;;;;;;;;-144.99;89.57;52586.69;5054472;28;20395;-63
2023/01/15 02:55:24;;;;;;;;;;;;;;;-144.99;90.20;52607.09;5063987;28;19932;-66
2023/01/15 02:57:51;;;;;;;;;;;;;;;-144.99;89.84;52578.53;5062313;28;20376;-67
2023/01/15 03:00:19;;;;;;;;;;;;;;;-144.99;89.86;52576.50;5065696;28;20401;-69
2023/01/15 03:02:49;;;;;;;;;;;;;;;-144.99;89.97;52594.84;5063197;28;20217;-66
2023/01/15 03:05:18;;;;;;;;;;;;;;;-144.99;90.21;52588.75;5073925;28;19924;-67
2023/01/15 03:07:48;;;;;;;;;;;;;;;-144.99;89.55;52603.00;5057516;28;20413;-67
2023/01/15 03:10:15;;;;;;;;;;;;;;;-144.99;89.31;52598.94;5054009;28;19924;-70
2023/01/15 03:18:11;;;;;;;;;;;;;;;-144.99;89.58;52619.31;5060974;28;19925;-66
2023/01/15 03:20:38;;;;;;;;;;;;;;;-144.99;89.13;52556.13;5065336;28;20385;-66
2023/01/15 03:23:14;;;;;;;;;;;;;;;-144.99;89.20;52598.94;5050328;28;20352;-68
2023/01/15 03:25:43;;;;;;;;;;;;;;;-144.99;89.41;52545.94;5069727;28;19935;-67
2023/01/15 03:28:11;;;;;;;;;;;;;;;-144.99;89.39;52600.97;5067426;28;19936;-67
2023/01/15 03:30:38;;;;;;;;;;;;;;;-144.99;88.84;52603.00;5069245;28;19924;-67
2023/01/15 03:33:05;;;;;;;;;;;;;;;-144.99;89.08;52576.50;5067079;28;20199;-70
2023/01/15 03:35:45;;;;;;;;;;;;;;;-144.99;88.55;52596.88;5066909;28;19932;-70
2023/01/15 03:38:12;;;;;;;;;;;;;;;-144.99;88.48;52592.81;5057092;28;19924;-71
2023/01/15 03:40:43;;;;;;;;;;;;;;;-144.99;87.36;52574.47;5063337;28;19978;-70
2023/01/15 03:45:59;;;;;;;;;;;;;;;-144.99;87.47;52586.69;5085761;28;19999;-72
2023/01/15 03:48:30;;;;;;;;;;;;;;;-144.99;87.37;52590.78;5071548;28;20227;-72
2023/01/15 03:51:02;;;;;;;;;;;;;;;-144.99;87.05;52554.09;5059862;28;19965;-71
2023/01/15 03:53:32;;;;;;;;;;;;;;;-144.99;87.61;52578.53;5069617;28;20465;-71
2023/01/15 03:56:02;;;;;;;;;;;;;;;-144.99;87.04;52578.53;5055351;28;20286;-72
2023/01/15 03:58:30;;;;;;;;;;;;;;;-144.99;87.17;52590.78;5061710;28;20055;-72
2023/01/15 04:00:58;;;;;;;;;;;;;;;-144.99;87.05;52588.75;5064984;28;19987;-71
2023/01/15 04:03:28;;;;;;;;;;;;;;;-144.99;86.81;52615.25;5065973;28;19924;-70
2023/01/15 04:05:55;;;;;;;;;;;;;;;-144.99;86.36;52603.00;5063212;28;20002;-71
2023/01/15 04:08:24;;;;;;;;;;;;;;;-144.99;86.82;52623.38;5068927;28;19932;-72
2023/01/15 04:10:52;;;;;;;;;;;;;;;-144.99;86.25;52615.25;5063470;28;20051;-68
2023/01/15 04:13:18;;;;;;;;;;;;;;;-144.99;86.50;52603.00;5067467;28;20010;-67
2023/01/15 04:15:45;;;;;;;;;;;;;;;-144.99;86.75;52598.94;5057821;28;20422;-68
2023/01/15 04:18:11;;;;;;;;;;;;;;;-144.99;86.46;52594.84;5071970;28;20403;-68
2023/01/15 04:20:38;;;;;;;;;;;;;;;-144.99;85.55;52580.59;5069640;28;19956;-67
2023/01/15 04:23:04;;;;;;;;;;;;;;;-144.99;86.09;52596.88;5074857;28;19925;-70
2023/01/15 04:25:32;;;;;;;;;;;;;;;-144.99;86.44;52586.69;5090440;28;19959;-70
2023/01/15 04:27:59;;;;;;;;;;;;;;;-144.99;85.74;52586.69;5059512;28;19924;-69
2023/01/15 04:30:25;;;;;;;;;;;;;;;-144.99;85.87;52611.16;5051554;28;19929;-68
2023/01/15 04:32:52;;;;;;;;;;;;;;;-144.99;85.34;52600.97;5057071;28;19963;-68
2023/01/15 04:35:19;;;;;;;;;;;;;;;-144.99;85.49;52572.44;5072139;28;19978;-67
2023/01/15 04:37:46;;;;;;;;;;;;;;;-144.99;85.81;52603.00;5070847;28;19928;-67
2023/01/15 04:44:05;;;;;;;;;;;;;;;-144.99;84.82;52586.69;5069145;28;19970;-67
2023/01/15 04:45:46;;;;;;;;;;;;;;;-144.99;85.36;52566.31;5059267;28;20061;-67
2023/01/15 04:48:12;;;;;;;;;;;;;;;-144.99;85.53;52550.00;5069576;28;19985;-68
2023/01/15 04:50:39;;;;;;;;;;;;;;;-144.99;85.07;52590.78;5069847;28;20042;-67
2023/01/15 04:53:06;;;;;;;;;;;;;;;-144.99;85.05;52590.78;5066293;28;19924;-67
2023/01/15 04:55:32;;;;;;;;;;;;;;;-144.99;84.49;52607.09;5069194;28;20023;-68
2023/01/15 04:57:59;;;;;;;;;;;;;;;-144.99;84.67;52598.94;5064203;28;19941;-68
2023/01/15 05:00:27;;;;;;;;;;;;;;;-144.99;84.96;52590.78;5071335;28;19924;-69
2023/01/15 05:02:53;;;;;;;;;;;;;;;-144.99;84.45;52598.94;5060200;28;19986;-69
2023/01/15 05:05:20;;;;;;;;;;;;;;;-144.99;84.33;52590.78;5083744;28;19940;-68
2023/01/15 05:07:46;;;;;;;;;;;;;;;-144.99;84.03;52607.09;5064811;28;19943;-70
2023/01/15 05:10:13;;;;;;;;;;;;;;;-144.99;84.19;52603.00;5064709;28;19924;-69
2023/01/15 05:12:39;;;;;;;;;;;;;;;-144.99;84.38;52590.78;5070831;28;19970;-70
2023/01/15 05:15:06;;;;;;;;;;;;;;;-144.99;84.65;52578.53;5061497;28;19962;-69
2023/01/15 05:17:34;;;;;;;;;;;;;;;-144.99;84.24;52590.78;5066079;28;19970;-68
2023/01/15 05:20:01;;;;;;;;;;;;;;;-144.99;83.80;52586.69;5054698;28;19924;-68
2023/01/15 05:22:27;;;;;;;;;;;;;;;-144.99;84.45;52615.25;5063426;28;19933;-69
2023/01/15 05:24:54;;;;;;;;;;;;;;;-144.99;83.98;52570.38;5062852;28;19982;-69
2023/01/15 05:27:20;;;;;;;;;;;;;;;-144.99;84.20;52635.63;5060256;28;20309;-69
2023/01/15 05:29:47;;;;;;;;;;;;;;;-144.99;83.64;52578.53;5062075;28;19928;-68
2023/01/15 05:32:14;;;;;;;;;;;;;;;-144.99;83.25;52564.28;5059224;28;20012;-69
2023/01/15 05:34:42;;;;;;;;;;;;;;;-144.99;83.12;52590.78;5065643;28;19931;-69
2023/01/15 05:37:08;;;;;;;;;;;;;;;-144.99;83.13;52594.84;5065289;28;19968;-68
2023/01/15 05:39:35;;;;;;;;;;;;;;;-144.99;82.94;52603.00;5063662;28;19928;-69
2023/01/15 05:42:01;;;;;;;;;;;;;;;-144.99;82.57;52619.31;5057874;28;19979;-69
2023/01/15 05:44:28;;;;;;;;;;;;;;;-144.99;82.38;52598.94;5061474;28;19959;-69
2023/01/15 05:46:56;;;;;;;;;;;;;;;-144.99;82.17;52603.00;5072308;28;19936;-71
2023/01/15 05:49:23;;;;;;;;;;;;;;;-144.99;82.05;52586.69;5066639;28;19936;-70
2023/01/15 05:51:52;;;;;;;;;;;;;;;-144.99;82.23;52611.16;5059384;28;20746;-65
2023/01/15 05:54:19;;;;;;;;;;;;;;;-144.99;82.23;52594.84;5058269;28;19968;-65
2023/01/15 05:56:46;;;;;;;;;;;;;;;-144.99;82.21;52598.94;5052524;28;19954;-66
2023/01/15 05:59:13;;;;;;;;;;;;;;;-144.99;82.07;52627.47;5057437;28;19928;-64
2023/01/15 06:01:40;;;;;;;;;;;;;;;-144.99;81.27;52545.94;5055844;28;19948;-65
2023/01/15 06:04:07;;;;;;;;;;;;;;;-144.99;81.14;52588.75;5054863;28;19947;-65
2023/01/15 06:06:34;;;;;;;;;;;;;;;-144.99;81.34;52631.53;5054771;28;20422;-65
2023/01/15 06:09:02;;;;;;;;;;;;;;;-144.99;80.57;52627.47;5050884;28;19926;-64
2023/01/15 06:11:28;;;;;;;;;;;;;;;-144.99;80.31;52586.69;5055818;28;19924;-64
2023/01/15 06:13:55;;;;;;;;;;;;;;;-144.99;80.02;52584.66;5050683;28;20050;-65
2023/01/15 06:16:22;;;;;;;;;;;;;;;-144.99;79.68;52560.19;5054427;28;19947;-65
2023/01/15 06:18:48;;;;;;;;;;;;;;;-144.99;79.82;52582.63;5052861;28;19981;-65
2023/01/15 06:21:15;;;;;;;;;;;;;;;-144.99;79.36;52609.13;5054882;28;19936;-66
2023/01/15 06:23:41;;;;;;;;;;;;;;;-144.99;78.86;52598.94;5053901;28;19947;-65
2023/01/15 06:26:11;;;;;;;;;;;;;;;-144.99;77.81;52615.25;5063359;28;19982;-65
2023/01/15 06:28:38;;;;;;;;;;;;;;;-144.99;78.19;52635.63;5072926;28;19932;-66
2023/01/15 06:31:05;;;;;;;;;;;;;;;-144.99;78.03;52580.59;5060069;28;20380;-66
2023/01/15 06:33:31;;;;;;;;;;;;;;;-144.99;77.63;52578.53;5060384;28;19925;-65
2023/01/15 06:35:58;;;;;;;;;;;;;;;-144.99;77.46;52578.53;5059574;28;19985;-66
2023/01/15 06:38:24;;;;;;;;;;;;;;;-144.99;77.19;52596.88;5048020;28;19929;-66
2023/01/15 06:40:51;;;;;;;;;;;;;;;-144.99;77.05;52584.66;5050656;28;19964;-65
2023/01/15 06:48:47;;;;;;;;;;;;;;;-144.99;77.01;52631.53;5070442;28;20332;-70
2023/01/15 06:51:18;;;;;;;;;;;;;;;-144.99;77.05;52578.53;5059696;28;19994;-70
2023/01/15 06:53:45;;;;;;;;;;;;;;;-144.99;77.27;52627.47;5070004;28;20450;-72
2023/01/15 06:56:13;;;;;;;;;;;;;;;-144.99;76.36;52582.63;5060446;28;20024;-70
2023/01/15 06:58:41;;;;;;;;;;;;;;;-144.99;76.29;52627.47;5070009;28;19946;-70
2023/01/15 07:01:09;;;;;;;;;;;;;;;-144.99;76.15;52574.47;5057577;28;20373;-70
2023/01/15 07:03:35;;;;;;;;;;;;;;;-144.99;76.18;52576.50;5067880;28;19924;-70
2023/01/15 07:06:05;;;;;;;;;;;;;;;-144.99;76.11;52594.84;5073549;28;20138;-72
2023/01/15 07:08:32;;;;;;;;;;;;;;;-144.99;75.67;52578.53;5084274;28;19924;-71
2023/01/15 07:11:01;;;;;;;;;;;;;;;-144.99;75.38;52615.25;5075455;28;19931;-72
2023/01/15 07:13:28;;;;;;;;;;;;;;;-144.99;75.90;52629.50;5068928;28;19925;-69
2023/01/15 07:15:57;;;;;;;;;;;;;;;-144.99;76.01;52603.00;5067721;28;19933;-67
2023/01/15 07:18:24;;;;;;;;;;;;;;;-144.99;75.51;52570.38;5063029;28;19967;-68
2023/01/15 07:20:54;;;;;;;;;;;;;;;-144.99;75.24;52611.16;5059542;28;19944;-68
2023/01/15 07:23:21;;;;;;;;;;;;;;;-144.99;75.05;52570.38;5065476;28;20385;-69
2023/01/15 07:25:47;;;;;;;;;;;;;;;-144.99;74.73;52582.63;5059300;28;20374;-69
2023/01/15 07:28:14;;;;;;;;;;;;;;;-144.99;74.35;52570.38;5063022;28;20173;-70
2023/01/15 07:30:40;;;;;;;;;;;;;;;-144.99;74.64;52615.25;5063085;28;20409;-69
2023/01/15 07:33:08;;;;;;;;;;;;;;;-144.99;74.73;52603.00;5059893;28;20370;-69
2023/01/15 07:35:35;;;;;;;;;;;;;;;-144.99;74.54;52613.19;5062745;28;20377;-68
2023/01/15 07:38:02;;;;;;;;;;;;;;;-144.99;74.84;52613.19;5055156;28;20176;-69
2023/01/15 07:40:28;;;;;;;;;;;;;;;-144.99;74.60;52615.25;5066830;28;19990;-70
2023/01/15 07:51:08;;;;;;;;;;;;;;;-144.99;73.85;52592.81;5073359;28;19931;-69
2023/01/15 07:53:35;;;;;;;;;;;;;;;-144.99;73.59;52617.28;5064003;28;19924;-69
2023/01/15 07:56:02;;;;;;;;;;;;;;;-144.99;73.82;52598.94;5066474;28;19976;-69
2023/01/15 07:58:28;;;;;;;;;;;;;;;-144.99;74.26;52598.94;5064463;28;19924;-70
2023/01/15 08:00:55;;;;;;;;;;;;;;;-144.99;74.02;52609.13;5067473;28;19925;-69
2023/01/15 08:03:21;;;;;;;;;;;;;;;-144.99;74.17;52582.63;5064377;28;19978;-69
2023/01/15 08:05:49;;;;;;;;;;;;;;;-144.99;73.80;52627.47;5062895;28;20412;-68
2023/01/15 08:08:16;;;;;;;;;;;;;;;-144.99;72.60;52627.47;5061083;28;19978;-68
2023/01/15 08:15:11;;;;;;;;;;;;;;;-144.99;72.89;52615.25;5052803;28;19932;-78
2023/01/15 08:16:16;;;;;;;;;;;;;;;-144.99;72.90;52627.47;5066993;28;19932;-70
2023/01/15 08:18:44;;;;;;;;;;;;;;;-144.99;73.08;52594.84;5053102;28;20013;-71
2023/01/15 08:21:15;;;;;;;;;;;;;;;-144.99;72.80;52656.00;5067032;28;19967;-72
2023/01/15 08:23:44;;;;;;;;;;;;;;;-144.99;72.40;52598.94;5067827;28;19948;-70
2023/01/15 08:26:11;;;;;;;;;;;;;;;-144.99;72.71;52607.09;5058988;28;20486;-70
2023/01/15 08:28:37;;;;;;;;;;;;;;;-144.99;72.56;52586.69;5068923;28;19925;-71
2023/01/15 08:31:05;;;;;;;;;;;;;;;-144.99;72.65;52647.84;5072006;28;20256;-71
2023/01/15 08:33:32;;;;;;;;;;;;;;;-144.99;73.36;52635.63;5067910;28;19928;-72
2023/01/15 08:35:58;;;;;;;;;;;;;;;-144.99;73.57;52582.63;5076584;28;19928;-71
2023/01/15 08:38:26;;;;;;;;;;;;;;;-144.99;73.91;52625.44;5063533;28;20300;-71
2023/01/15 08:40:58;;;;;;;;;;;;;;;-144.99;74.09;52647.84;5070643;28;19976;-72
2023/01/15 08:43:25;;;;;;;;;;;;;;;-144.99;73.90;52639.69;5071327;28;20011;-70
2023/01/15 08:45:51;;;;;;;;;;;;;;;-144.99;73.68;52639.69;5058325;28;20246;-69
2023/01/15 08:48:18;;;;;;;;;;;;;;;-144.99;74.17;52590.78;5066729;28;20289;-71
2023/01/15 08:50:46;;;;;;;;;;;;;;;-144.99;74.25;52639.69;5068995;28;19924;-70
2023/01/15 08:53:12;;;;;;;;;;;;;;;-144.99;73.34;52611.16;5064668;28;19931;-71
2023/01/15 08:55:40;;;;;;;;;;;;;;;-144.99;73.33;52662.13;5055532;28;19924;-71
2023/01/15 08:58:07;;;;;;;;;;;;;;;-144.99;72.14;52603.00;5070643;28;19964;-71
2023/01/15 09:00:33;;;;;;;;;;;;;;;-144.99;71.72;52594.84;5065730;28;19975;-72
2023/01/15 09:03:00;;;;;;;;;;;;;;;-144.99;71.00;52594.84;5061069;28;20343;-71
2023/01/15 09:05:27;;;;;;;;;;;;;;;-144.99;70.83;52574.47;5062625;28;19929;-74
2023/01/15 09:07:54;;;;;;;;;;;;;;;-144.99;70.35;52633.59;5065570;28;19925;-71
2023/01/15 09:10:21;;;;;;;;;;;;;;;-144.99;69.49;52594.84;5090282;28;19933;-73
2023/01/15 09:12:49;;;;;;;;;;;;;;;-144.99;68.64;52568.34;5065807;28;19932;-72
2023/01/15 09:15:16;;;;;;;;;;;;;;;-144.99;67.25;52543.91;5067913;28;19928;-71
2023/01/15 09:17:42;;;;;;;;;;;;;;;-144.99;67.02;52590.78;5069895;28;19960;-72
2023/01/15 09:20:10;;;;;;;;;;;;;;;-144.99;66.89;52580.59;5058113;28;19924;-70
2023/01/15 09:22:36;;;;;;;;;;;;;;;-144.99;67.06;52588.75;5052373;28;20066;-71
2023/01/15 09:25:03;;;;;;;;;;;;;;;-144.99;67.32;52570.38;5064876;28;20191;-70
2023/01/15 09:27:29;;;;;;;;;;;;;;;-144.99;67.47;52598.94;5055315;28;19954;-71
2023/01/15 09:29:57;;;;;;;;;;;;;;;-144.99;67.16;52562.25;5062336;28;20372;-70
2023/01/15 09:32:24;;;;;;;;;;;;;;;-144.99;66.35;52582.63;5064625;28;20078;-71
2023/01/15 09:34:50;;;;;;;;;;;;;;;-144.99;66.16;52598.94;5056823;28;19928;-69
2023/01/15 09:37:17;;;;;;;;;;;;;;;-144.99;65.91;52578.53;5059697;28;20057;-71
2023/01/15 09:39:44;;;;;;;;;;;;;;;-144.99;65.11;52558.16;5055602;28;19925;-72
2023/01/15 09:42:19;;;;;;;;;;;;;;;-144.99;64.07;52578.53;5060213;28;20400;-69
2023/01/15 09:44:51;;;;;;;;;;;;;;;-144.99;63.53;52594.84;5054178;28;19925;-69
2023/01/15 09:47:22;;;;;;;;;;;;;;;-144.99;64.05;52586.69;5051262;28;19929;-69
2023/01/15 09:50:00;;;;;;;;;;;;;;;-144.99;64.81;52607.09;5081369;28;19982;-70
2023/01/15 09:52:33;;;;;;;;;;;;;;;-144.99;64.58;52562.25;5059789;28;20333;-69
2023/01/15 09:55:03;;;;;;;;;;;;;;;-144.99;63.86;52582.63;5089519;22;19969;-66
2023/01/15 09:57:31;;;;;;;;;;;;;;;-144.99;62.40;52574.47;5089088;28;19928;-69
2023/01/15 10:00:01;;;;;;;;;;;;;;;-144.99;61.28;52574.47;5089135;28;20001;-66
2023/01/15 10:02:31;;;;;;;;;;;;;;;-144.99;60.46;52578.53;5085271;28;19924;-66
2023/01/15 10:05:01;;;;;;;;;;;;;;;-144.99;59.96;52596.88;5089693;28;20264;-67
2023/01/15 10:07:30;;;;;;;;;;;;;;;-144.99;60.78;52598.94;5081425;28;19982;-67
2023/01/15 10:10:00;;;;;;;;;;;;;;;-144.99;60.43;52600.97;5089238;28;19977;-67
2023/01/15 10:12:38;;;;;;;;;;;;;;;-144.99;59.19;52635.63;5089548;28;19924;-66
2023/01/15 10:15:10;;;;;;;;;;;;;;;-144.99;59.83;52619.31;5089355;28;20371;-66
2023/01/15 10:17:41;;;;;;;;;;;;;;;-144.99;60.52;52586.69;5089051;28;19924;-67
2023/01/15 10:20:12;;;;;;;;;;;;;;;-144.99;59.74;52609.13;5089483;28;19928;-68
2023/01/15 10:22:44;;;;;;;;;;;;;;;-144.99;59.28;52576.50;5090009;28;19989;-67
2023/01/15 10:25:15;;;;;;;;;;;;;;;-144.99;59.05;52615.25;5091746;28;19995;-67
2023/01/15 10:27:45;;;;;;;;;;;;;;;-144.99;59.42;52588.75;5089409;28;20250;-70
2023/01/15 10:30:15;;;;;;;;;;;;;;;-144.99;59.21;52582.63;5089149;28;19928;-69
2023/01/15 10:32:49;;;;;;;;;;;;;;;-144.99;58.99;52596.88;5088824;28;19931;-69
2023/01/15 10:35:27;;;;;;;;;;;;;;;-144.99;59.31;52576.50;5088853;28;19971;-69
2023/01/15 10:37:56;;;;;;;;;;;;;;;-144.99;58.92;52623.38;5088820;28;19963;-69
2023/01/15 10:40:33;;;;;;;;;;;;;;;-144.99;58.35;52529.63;5087755;28;20289;-69
2023/01/15 10:43:02;;;;;;;;;;;;;;;-144.99;56.48;52480.72;5088878;28;19953;-70
2023/01/15 10:45:32;;;;;;;;;;;;;;;-144.99;55.33;52558.16;5088700;28;20017;-69
2023/01/15 10:48:05;;;;;;;;;;;;;;;-144.99;54.65;52556.13;5086166;28;19962;-69
2023/01/15 10:50:32;;;;;;;;;;;;;;;-144.99;55.76;52603.00;5088735;28;19952;-69
2023/01/15 10:53:02;;;;;;;;;;;;;;;-144.99;56.66;52570.38;5088865;28;19924;-69
2023/01/15 10:55:32;;;;;;;;;;;;;;;-144.99;56.44;52615.25;5085500;28;20004;-70
2023/01/15 10:58:02;;;;;;;;;;;;;;;-144.99;56.68;52598.94;5088654;28;20313;-69
2023/01/15 11:00:28;;;;;;;;;;;;;;;-144.99;56.78;52656.00;5087969;28;19979;-69
2023/01/15 11:03:00;;;;;;;;;;;;;;;-144.99;57.62;52615.25;5088348;28;20292;-69
2023/01/15 11:05:28;;;;;;;;;;;;;;;-144.99;57.50;52586.69;5084497;28;20373;-69
2023/01/15 11:07:56;;;;;;;;;;;;;;;-144.99;57.82;52582.63;5088496;28;19924;-69
2023/01/15 11:10:23;;;;;;;;;;;;;;;-144.99;58.16;52603.00;5087840;28;20462;-69
2023/01/15 11:21:12;;;;;;;;;;;;;;;-144.99;58.17;52576.50;5088515;28;20192;-69
2023/01/15 11:23:39;;;;;;;;;;;;;;;-144.99;57.79;52588.75;5092783;28;20041;-69
2023/01/15 11:26:06;;;;;;;;;;;;;;;-144.99;58.23;52607.09;5086859;28;19982;-69
2023/01/15 11:28:35;;;;;;;;;;;;;;;-144.99;58.19;52594.84;5089637;28;19943;-69
2023/01/15 11:31:02;;;;;;;;;;;;;;;-144.99;58.88;52627.47;5093172;28;19928;-70
2023/01/15 11:33:30;;;;;;;;;;;;;;;-144.99;59.02;52615.25;5093859;28;20016;-70
2023/01/15 11:35:58;;;;;;;;;;;;;;;-144.99;59.26;52615.25;5092007;28;19924;-69
2023/01/15 11:38:26;;;;;;;;;;;;;;;-144.99;59.61;52603.00;5080532;28;19924;-67
2023/01/15 11:40:54;;;;;;;;;;;;;;;-144.99;58.84;52596.88;5090806;28;20400;-70
2023/01/15 11:51:40;;;;;;;;;;;;;;;-144.99;59.00;52627.47;5090147;28;19951;-69
2023/01/15 11:54:09;;;;;;;;;;;;;;;-144.99;59.22;52607.09;5090976;28;20001;-69
2023/01/15 11:56:40;;;;;;;;;;;;;;;-144.99;59.44;52568.34;5093945;28;19928;-69
2023/01/15 11:59:10;;;;;;;;;;;;;;;-144.99;59.51;52429.75;5091878;28;19989;-69
2023/01/15 12:01:40;;;;;;;;;;;;;;;-144.99;56.49;52454.22;5090906;28;19946;-69
2023/01/15 12:04:07;;;;;;;;;;;;;;;-144.99;55.33;52425.66;5090454;28;19924;-69
2023/01/15 12:06:35;;;;;;;;;;;;;;;-144.99;54.09;52411.41;5090623;28;20019;-69
2023/01/15 12:09:06;;;;;;;;;;;;;;;-144.99;53.63;52419.56;5090316;28;20418;-70
2023/01/15 12:11:43;;;;;;;;;;;;;;;-144.99;53.00;52370.63;5090594;28;19960;-70
2023/01/15 12:14:29;;;;;;;;;;;;;;;-144.99;51.48;52362.50;5090604;28;19992;-70
2023/01/15 12:16:59;;;;;;;;;;;;;;;-144.99;49.80;52468.47;5090392;28;19928;-69
2023/01/15 12:19:28;;;;;;;;;;;;;;;-144.99;50.23;52386.94;5090256;28;19924;-69
2023/01/15 12:22:04;;;;;;;;;;;;;;;-144.99;50.87;52517.41;5089989;28;20477;-69
2023/01/15 12:24:45;;;;;;;;;;;;;;;-144.99;51.44;52376.75;5089983;28;19963;-69
2023/01/15 12:27:20;;;;;;;;;;;;;;;-144.99;50.95;52399.19;5081756;28;20438;-69
2023/01/15 12:29:49;;;;;;;;;;;;;;;-144.99;50.11;52431.78;5085045;28;19924;-69
2023/01/15 12:32:17;;;;;;;;;;;;;;;-144.99;50.05;52370.63;5087673;28;19977;-69
2023/01/15 12:34:47;;;;;;;;;;;;;;;-144.99;51.07;52370.63;5086242;28;19924;-69
2023/01/15 12:37:19;;;;;;;;;;;;;;;-144.99;52.20;52517.41;5087299;28;19977;-69
2023/01/15 12:39:47;;;;;;;;;;;;;;;-144.99;54.34;52590.78;5089591;28;19931;-69
2023/01/15 12:45:04;;;;;;;;;;;;;;;-144.99;59.14;52637.66;5099897;28;19993;-69
2023/01/15 12:47:33;;;;;;;;;;;;;;;-144.99;61.00;52598.94;5102732;28;20469;-69
2023/01/15 12:50:03;;;;;;;;;;;;;;;-144.99;62.22;52619.31;5079862;28;19978;-69
2023/01/15 12:52:33;;;;;;;;;;;;;;;-144.99;63.69;52627.47;5090969;28;19939;-68
2023/01/15 12:55:03;;;;;;;;;;;;;;;-144.99;64.53;52603.00;5092520;28;20132;-69
2023/01/15 12:57:33;;;;;;;;;;;;;;;-144.99;65.27;52588.75;5087795;28;20547;-70
2023/01/15 13:00:03;;;;;;;;;;;;;;;-144.99;66.05;52623.38;5092761;28;19935;-68
2023/01/15 13:02:33;;;;;;;;;;;;;;;-144.99;66.29;52598.94;5089852;28;20016;-68
2023/01/15 13:05:07;;;;;;;;;;;;;;;-144.99;66.32;52619.31;5084250;28;19985;-68
2023/01/15 13:07:35;;;;;;;;;;;;;;;-144.99;67.70;52668.22;5088176;28;20485;-68
2023/01/15 13:10:06;;;;;;;;;;;;;;;-144.99;68.46;52631.53;5090925;28;19973;-68
2023/01/15 13:12:34;;;;;;;;;;;;;;;-144.99;68.80;52664.16;5091569;28;19924;-68
2023/01/15 13:15:01;;;;;;;;;;;;;;;-144.99;68.90;52607.09;5091245;28;19955;-68
2023/01/15 13:17:33;;;;;;;;;;;;;;;-144.99;68.52;52598.94;5091636;28;19928;-69
2023/01/15 13:20:23;;;;;;;;;;;;;;;-144.99;68.45;52627.47;5092966;28;19935;-67
2023/01/15 13:22:54;;;;;;;;;;;;;;;-144.99;68.15;52631.53;5068751;28;19924;-68
2023/01/15 13:25:36;;;;;;;;;;;;;;;-144.99;67.74;52611.16;5071915;28;19986;-68